createdAt,value
2023-06-11T00:01:45.658Z,59.20
2023-06-11T00:06:48.103Z,59.70
2023-06-11T00:11:50.452Z,59.00
2023-06-11T00:16:52.804Z,59.20
2023-06-11T00:21:57.432Z,59.30
2023-06-11T00:27:02.868Z,59.70
2023-06-11T00:32:05.718Z,60.60
2023-06-11T00:37:08.056Z,62.40
2023-06-11T00:42:11.586Z,61.90
2023-06-11T00:47:16.348Z,63.00
2023-06-11T00:52:19.777Z,64.10
2023-06-11T00:57:26.242Z,65.10
2023-06-11T01:02:40.611Z,64.50
2023-06-11T01:07:51.927Z,63.80
2023-06-11T01:13:02.710Z,62.90
2023-06-11T01:18:20.539Z,62.80
2023-06-11T01:23:42.372Z,62.70
2023-06-11T01:28:51.268Z,63.00
2023-06-11T01:33:54.344Z,62.60
2023-06-11T01:39:00.244Z,62.40
2023-06-11T01:44:30.634Z,64.80
2023-06-11T01:49:33.029Z,65.40
2023-06-11T01:54:35.668Z,64.70
2023-06-11T01:59:37.865Z,64.50
2023-06-11T02:04:40.051Z,64.50
2023-06-11T02:09:42.392Z,64.50
2023-06-11T02:14:44.633Z,64.50
2023-06-11T02:19:46.778Z,65.40
2023-06-11T02:24:49.116Z,65.70
2023-06-11T02:29:51.584Z,66.00
2023-06-11T02:34:53.891Z,68.20
2023-06-11T02:39:56.297Z,68.00
2023-06-11T02:44:58.489Z,66.80
2023-06-11T02:50:00.980Z,65.80
2023-06-11T02:55:03.463Z,65.90
2023-06-11T03:00:07.384Z,67.50
2023-06-11T03:05:10.153Z,66.20
2023-06-11T03:10:13.672Z,66.30
2023-06-11T03:15:16.082Z,66.30
2023-06-11T03:20:18.226Z,67.20
2023-06-11T03:25:20.606Z,69.60
2023-06-11T03:30:22.783Z,69.50
2023-06-11T03:35:25.224Z,68.80
2023-06-11T03:40:28.457Z,67.10
2023-06-11T03:45:32.008Z,67.20
2023-06-11T03:50:34.890Z,69.50
2023-06-11T03:55:37.409Z,67.50
2023-06-11T04:00:40.662Z,67.80
2023-06-11T04:05:43.714Z,69.10
2023-06-11T04:10:46.561Z,68.90
2023-06-11T04:15:48.791Z,67.40
2023-06-11T04:20:51.181Z,66.60
2023-06-11T04:25:56.545Z,66.20
2023-06-11T04:31:01.113Z,66.60
2023-06-11T04:36:09.938Z,66.30
2023-06-11T04:41:13.554Z,67.60
2023-06-11T04:46:17.650Z,67.50
2023-06-11T04:51:21.866Z,67.30
2023-06-11T04:56:27.048Z,66.50
2023-06-11T05:01:31.699Z,66.40
2023-06-11T05:06:35.648Z,65.10
2023-06-11T05:11:45.505Z,64.90
2023-06-11T05:16:51.829Z,64.70
2023-06-11T05:21:54.461Z,66.30
2023-06-11T05:26:57.808Z,64.70
2023-06-11T05:32:01.817Z,66.00
2023-06-11T05:37:05.443Z,65.50
2023-06-11T05:42:08.785Z,65.40
2023-06-11T05:47:13.188Z,65.30
2023-06-11T05:52:15.506Z,65.40
2023-06-11T05:57:24.272Z,65.10
2023-06-11T06:02:30.024Z,66.40
2023-06-11T06:07:34.554Z,66.00
2023-06-11T06:12:36.770Z,64.90
2023-06-11T06:17:39.880Z,65.10
2023-06-11T06:22:42.701Z,65.00
2023-06-11T06:27:45.097Z,65.80
2023-06-11T06:32:47.675Z,66.90
2023-06-11T06:37:50.601Z,65.90
2023-06-11T06:42:52.908Z,65.30
2023-06-11T06:48:03.374Z,65.30
2023-06-11T06:53:06.255Z,66.20
2023-06-11T06:58:08.514Z,64.40
2023-06-11T07:03:13.518Z,63.40
2023-06-11T07:08:16.273Z,62.70
2023-06-11T07:13:21.446Z,62.40
2023-06-11T07:18:23.943Z,62.20
2023-06-11T07:23:29.177Z,61.70
2023-06-11T07:28:31.969Z,62.10
2023-06-11T07:33:35.215Z,61.10
2023-06-11T07:38:37.766Z,60.00
2023-06-11T07:43:40.712Z,59.30
2023-06-11T07:48:46.426Z,58.40
2023-06-11T07:53:48.981Z,58.80
2023-06-11T07:58:51.338Z,57.30
2023-06-11T08:03:53.564Z,56.50
2023-06-11T08:08:57.117Z,55.60
2023-06-11T08:13:59.314Z,56.10
2023-06-11T08:19:01.810Z,54.30
2023-06-11T08:24:05.078Z,54.80
2023-06-11T08:29:16.835Z,53.40
2023-06-11T08:34:20.248Z,52.50
2023-06-11T08:39:22.440Z,53.20
2023-06-11T08:44:27.244Z,52.70
2023-06-11T08:49:31.703Z,53.50
2023-06-11T08:54:34.177Z,52.40
2023-06-11T08:59:36.380Z,52.70
2023-06-11T09:04:43.051Z,50.60
2023-06-11T09:09:45.324Z,51.40
2023-06-11T09:14:53.746Z,49.90
2023-06-11T09:19:57.389Z,49.20
2023-06-11T09:25:04.992Z,49.70
2023-06-11T09:30:13.000Z,52.50
2023-06-11T09:35:20.200Z,53.20
2023-06-11T09:40:25.185Z,50.50
2023-06-11T09:45:27.796Z,52.00
2023-06-11T09:50:34.285Z,48.80
2023-06-11T09:55:37.051Z,46.90
2023-06-11T10:00:39.676Z,49.20
2023-06-11T10:05:42.319Z,48.40
2023-06-11T10:10:52.881Z,48.50
2023-06-11T10:15:55.333Z,44.20
2023-06-11T10:21:06.019Z,48.00
2023-06-11T10:26:13.562Z,48.20
2023-06-11T10:31:41.062Z,48.70
2023-06-11T10:36:43.383Z,47.70
2023-06-11T10:41:45.959Z,42.50
2023-06-11T10:46:54.668Z,42.00
2023-06-11T10:51:57.324Z,44.70
2023-06-11T10:57:04.475Z,42.10
2023-06-11T11:02:13.510Z,43.50
2023-06-11T11:07:16.060Z,40.70
2023-06-11T11:12:18.308Z,40.60
2023-06-11T11:17:20.614Z,42.40
2023-06-11T11:22:22.856Z,40.50
2023-06-11T11:27:25.037Z,40.20
2023-06-11T11:32:35.576Z,39.60
2023-06-11T11:37:37.928Z,42.20
2023-06-11T11:42:50.826Z,41.10
2023-06-11T11:47:53.793Z,42.00
2023-06-11T11:53:16.635Z,40.20
2023-06-11T11:58:18.986Z,42.00
2023-06-11T12:03:23.660Z,42.20
2023-06-11T12:08:28.324Z,43.30
2023-06-11T12:13:31.309Z,38.30
2023-06-11T12:18:34.829Z,44.30
2023-06-11T12:23:37.024Z,44.70
2023-06-11T12:28:39.299Z,45.40
2023-06-11T12:33:41.479Z,45.50
2023-06-11T12:38:43.748Z,41.30
2023-06-11T12:43:45.914Z,46.90
2023-06-11T12:48:48.052Z,47.00
2023-06-11T12:53:53.934Z,40.00
2023-06-11T12:58:58.418Z,37.90
2023-06-11T13:04:00.871Z,40.90
2023-06-11T13:09:04.051Z,46.00
2023-06-11T13:14:06.406Z,45.00
2023-06-11T13:19:09.345Z,37.70
2023-06-11T13:24:11.750Z,38.70
2023-06-11T13:29:14.072Z,37.90
2023-06-11T13:34:16.431Z,42.70
2023-06-11T13:39:18.830Z,41.30
2023-06-11T13:44:21.066Z,40.40
2023-06-11T13:49:25.183Z,41.90
2023-06-11T13:54:29.675Z,42.60
2023-06-11T13:59:32.952Z,37.90
2023-06-11T14:04:35.168Z,41.10
2023-06-11T14:09:37.410Z,38.60
2023-06-11T14:14:39.632Z,41.90
2023-06-11T14:19:41.799Z,39.50
2023-06-11T14:24:44.318Z,41.50
2023-06-11T14:29:46.521Z,37.70
2023-06-11T14:34:48.681Z,38.50
2023-06-11T14:39:50.941Z,36.60
2023-06-11T14:44:53.197Z,43.50
2023-06-11T14:49:55.462Z,45.00
2023-06-11T14:54:59.768Z,45.20
2023-06-11T15:00:05.492Z,44.70
2023-06-11T15:05:08.728Z,41.20
2023-06-11T15:10:11.988Z,44.80
2023-06-11T15:15:14.474Z,44.10
2023-06-11T15:20:16.777Z,44.20
2023-06-11T15:25:19.157Z,44.40
2023-06-11T15:30:21.544Z,42.10
2023-06-11T15:35:23.773Z,45.30
2023-06-11T15:40:25.943Z,46.00
2023-06-11T15:45:28.337Z,43.50
2023-06-11T15:50:30.729Z,44.40
2023-06-11T15:55:33.135Z,42.60
2023-06-11T16:00:35.455Z,43.60
2023-06-11T16:05:38.888Z,40.50
2023-06-11T16:10:41.158Z,41.50
2023-06-11T16:15:45.113Z,39.00
2023-06-11T16:20:47.551Z,39.30
2023-06-11T16:25:49.939Z,43.10
2023-06-11T16:30:52.169Z,42.00
2023-06-11T16:35:54.266Z,39.50
2023-06-11T16:40:56.880Z,40.10
2023-06-11T16:45:59.142Z,39.50
2023-06-11T16:51:01.559Z,44.40
2023-06-11T16:56:04.290Z,46.80
2023-06-11T17:01:06.551Z,43.90
2023-06-11T17:06:08.729Z,44.80
2023-06-11T17:11:11.212Z,41.70
2023-06-11T17:16:13.449Z,41.40
2023-06-11T17:21:15.812Z,41.60
2023-06-11T17:26:17.993Z,42.40
2023-06-11T17:31:20.428Z,40.40
2023-06-11T17:36:22.638Z,39.90
2023-06-11T17:41:25.049Z,40.20
2023-06-11T17:46:27.334Z,46.20
2023-06-11T17:51:29.611Z,44.80
2023-06-11T17:56:32.113Z,46.00
2023-06-11T18:01:36.369Z,42.40
2023-06-11T18:06:39.430Z,46.30
2023-06-11T18:11:42.661Z,42.00
2023-06-11T18:16:44.873Z,43.20
2023-06-11T18:21:47.119Z,42.90
2023-06-11T18:26:49.427Z,40.80
2023-06-11T18:31:51.662Z,41.30
2023-06-11T18:36:53.868Z,41.20
2023-06-11T18:41:56.374Z,42.70
2023-06-11T18:47:02.249Z,42.90
2023-06-11T18:52:06.503Z,42.50
2023-06-11T18:57:09.747Z,44.80
2023-06-11T19:02:11.958Z,43.90
2023-06-11T19:07:16.513Z,44.70
2023-06-11T19:12:19.179Z,42.10
2023-06-11T19:17:21.626Z,43.20
2023-06-11T19:22:23.933Z,42.90
2023-06-11T19:27:29.641Z,42.60
2023-06-11T19:32:32.272Z,43.00
2023-06-11T19:37:35.938Z,43.60
2023-06-11T19:42:38.556Z,43.80
2023-06-11T19:47:41.006Z,43.70
2023-06-11T19:52:43.342Z,44.00
2023-06-11T19:57:45.873Z,44.70
2023-06-11T20:02:49.204Z,45.20
2023-06-11T20:07:51.436Z,44.60
2023-06-11T20:12:53.654Z,44.80
2023-06-11T20:17:55.921Z,46.20
2023-06-11T20:22:58.269Z,45.10
2023-06-11T20:28:00.593Z,45.30
2023-06-11T20:33:03.417Z,46.80
2023-06-11T20:38:05.815Z,45.80
2023-06-11T20:43:08.180Z,46.10
2023-06-11T20:48:10.401Z,45.90
2023-06-11T20:53:24.114Z,46.30
2023-06-11T20:58:35.203Z,46.80
2023-06-11T21:03:37.423Z,46.70
2023-06-11T21:08:39.600Z,47.00
2023-06-11T21:13:41.833Z,46.90
2023-06-11T21:18:44.035Z,47.10
2023-06-11T21:23:46.352Z,46.80
2023-06-11T21:28:48.873Z,47.40
2023-06-11T21:33:51.010Z,47.90
2023-06-11T21:38:53.186Z,48.50
2023-06-11T21:43:55.473Z,47.90
2023-06-11T21:48:59.321Z,48.70
2023-06-11T21:54:01.897Z,49.70
2023-06-11T21:59:04.232Z,54.00
2023-06-11T22:04:06.532Z,51.80
2023-06-11T22:09:14.870Z,52.70
2023-06-11T22:14:17.219Z,54.00
2023-06-11T22:19:20.030Z,53.80
2023-06-11T22:24:22.588Z,53.60
2023-06-11T22:29:24.760Z,53.10
2023-06-11T22:34:26.929Z,53.40
2023-06-11T22:39:29.172Z,52.60
2023-06-11T22:44:31.526Z,53.00
2023-06-11T22:49:34.415Z,50.60
2023-06-11T22:54:39.409Z,53.70
2023-06-11T22:59:41.899Z,55.30
2023-06-11T23:04:46.393Z,55.20
2023-06-11T23:09:48.881Z,55.10
2023-06-11T23:14:51.097Z,55.30
2023-06-11T23:19:53.242Z,55.50
2023-06-11T23:24:55.541Z,55.20
2023-06-11T23:29:57.928Z,55.80
2023-06-11T23:35:01.565Z,56.10
2023-06-11T23:40:05.668Z,55.70
2023-06-11T23:45:08.400Z,53.50
2023-06-11T23:50:11.481Z,54.80
2023-06-11T23:55:15.099Z,56.40
